Time;durP1;ratioP1;P1;durP2;ratioP2;P2;SDS_P1;SDS_P2;PMS_P1;PMS_P2;Temp;Humidity;BMP_temperature;BMP_pressure;BME280_temperature;BME280_humidity;BME280_pressure;Samples;Min_cycle;Max_cycle;Signal;HPM_P1;HPM_P2
2021/10/22 00:00:41;;;;;;;8.50;2.60;;;;;;;11.60;52.74;98255.49;113530;1193;111145;-72
2021/10/22 00:03:11;;;;;;;8.90;2.60;;;;;;;11.59;53.25;98254.34;113463;1193;95132;-72
2021/10/22 00:05:42;;;;;;;8.30;2.60;;;;;;;11.58;53.00;98257.98;113513;1193;107498;-72
2021/10/22 00:08:13;;;;;;;6.60;3.00;;;;;;;11.57;53.04;98263.36;113439;1193;97615;-72
2021/10/22 00:10:41;;;;;;;6.50;2.40;;;;;;;11.57;52.97;98267.68;113503;1193;95134;-71
2021/10/22 00:13:12;;;;;;;10.90;2.50;;;;;;;11.57;53.00;98272.66;113492;1193;111115;-72
2021/10/22 00:15:40;;;;;;;6.40;2.70;;;;;;;11.57;52.10;98271.04;113596;1185;97679;-72
2021/10/22 00:18:07;;;;;;;7.30;1.90;;;;;;;11.57;52.71;98265.13;113603;1193;107115;-74
2021/10/22 00:20:35;;;;;;;3.80;2.10;;;;;;;11.59;52.69;98262.00;113592;1193;97626;-72
2021/10/22 00:23:03;;;;;;;4.90;1.50;;;;;;;11.61;52.86;98254.01;113518;1193;97572;-72
2021/10/22 00:25:34;;;;;;;4.70;1.70;;;;;;;11.62;52.61;98252.95;113556;1192;111360;-72
2021/10/22 00:28:03;;;;;;;4.90;1.80;;;;;;;11.65;52.47;98255.63;113563;1192;95045;-72
2021/10/22 00:30:30;;;;;;;5.30;1.60;;;;;;;11.65;52.46;98258.20;113448;1192;107513;-74
2021/10/22 00:32:58;;;;;;;5.00;1.90;;;;;;;11.67;52.68;98259.47;113443;1193;97547;-72
2021/10/22 00:35:26;;;;;;;10.60;2.30;;;;;;;11.68;52.69;98258.48;113572;1192;97589;-73
2021/10/22 00:37:54;;;;;;;2.70;1.50;;;;;;;11.69;52.67;98253.83;113430;1193;111113;-73
2021/10/22 00:40:27;;;;;;;7.10;1.90;;;;;;;11.69;52.55;98255.19;113557;1190;97590;-70
2021/10/22 00:42:59;;;;;;;11.80;2.20;;;;;;;11.69;52.39;98258.27;113645;1192;106551;-70
2021/10/22 00:45:27;;;;;;;4.00;1.70;;;;;;;11.68;52.32;98262.20;113481;1192;97563;-71
2021/10/22 00:47:55;;;;;;;5.50;2.10;;;;;;;11.69;52.24;98263.23;113548;1192;96106;-72
2021/10/22 00:50:23;;;;;;;9.00;2.20;;;;;;;11.69;52.04;98258.99;113458;1192;111167;-71
2021/10/22 00:52:54;;;;;;;9.30;2.20;;;;;;;11.69;52.03;98260.88;113539;1193;97439;-72
2021/10/22 00:55:22;;;;;;;5.30;1.90;;;;;;;11.69;51.82;98261.29;113564;1193;106998;-73
2021/10/22 00:57:53;;;;;;;4.50;1.80;;;;;;;11.69;51.91;98270.52;113578;1192;97624;-73
2021/10/22 01:00:21;;;;;;;5.90;2.10;;;;;;;11.68;51.78;98270.41;113605;1193;97626;-69
2021/10/22 01:02:49;;;;;;;3.80;1.70;;;;;;;11.67;51.80;98268.02;113600;1192;110945;-72
2021/10/22 01:05:20;;;;;;;4.10;1.60;;;;;;;11.66;51.77;98264.04;113727;1192;95385;-72
2021/10/22 01:07:52;;;;;;;3.30;1.70;;;;;;;11.63;51.76;98267.12;113891;1192;107256;-73
2021/10/22 01:10:20;;;;;;;4.30;1.80;;;;;;;11.61;51.68;98266.20;113954;1193;95045;-67
2021/10/22 01:12:49;;;;;;;4.20;1.50;;;;;;;11.59;51.44;98262.32;113949;1193;98317;-67
2021/10/22 01:15:17;;;;;;;4.50;1.70;;;;;;;11.55;51.45;98260.41;113954;1192;111078;-74
2021/10/22 01:17:47;;;;;;;6.30;1.20;;;;;;;11.52;51.32;98262.79;113974;1191;98277;-73
2021/10/22 01:20:24;;;;;;;6.80;1.70;;;;;;;11.51;51.29;98264.67;113605;1192;107479;-71
2021/10/22 01:22:55;;;;;;;3.50;1.50;;;;;;;11.48;50.99;98260.66;113938;1192;97556;-72
2021/10/22 01:25:28;;;;;;;2.80;1.30;;;;;;;11.47;51.18;98264.23;113944;1191;95692;-72
2021/10/22 01:27:59;;;;;;;4.60;1.20;;;;;;;11.46;50.71;98263.65;113949;1191;111162;-71
2021/10/22 01:30:31;;;;;;;5.50;1.40;;;;;;;11.45;50.78;98266.38;113935;1192;97544;-71
2021/10/22 01:33:07;;;;;;;6.40;1.50;;;;;;;11.46;50.71;98263.67;113947;1192;107524;-69
2021/10/22 01:35:35;;;;;;;5.10;1.20;;;;;;;11.46;50.61;98267.90;113444;1193;96178;-72
2021/10/22 01:38:06;;;;;;;5.70;1.20;;;;;;;11.46;50.65;98270.58;113973;1192;97618;-70
2021/10/22 01:40:34;;;;;;;3.60;1.20;;;;;;;11.46;50.33;98269.70;113950;1192;110739;-70
2021/10/22 01:43:02;;;;;;;5.60;1.10;;;;;;;11.45;50.34;98272.79;113959;1193;98015;-72
2021/10/22 01:45:30;;;;;;;3.90;1.20;;;;;;;11.43;50.34;98267.62;113936;1192;107473;-73
2021/10/22 01:47:58;;;;;;;4.00;1.40;;;;;;;11.42;50.25;98269.30;113942;1192;97682;-73
2021/10/22 01:50:33;;;;;;;5.60;1.10;;;;;;;11.40;50.23;98265.94;113946;1192;94943;-71
2021/10/22 01:53:01;;;;;;;7.30;1.10;;;;;;;11.39;50.15;98258.81;113948;1193;110566;-72
2021/10/22 01:55:35;;;;;;;3.70;1.00;;;;;;;11.36;50.05;98265.11;113936;1192;97550;-72
2021/10/22 01:58:03;;;;;;;4.70;1.50;;;;;;;11.32;49.92;98275.86;113875;1192;107617;-72
2021/10/22 02:00:30;;;;;;;3.80;1.00;;;;;;;11.29;49.91;98274.54;113881;1193;95064;-72
2021/10/22 02:03:03;;;;;;;3.40;1.20;;;;;;;11.26;49.79;98272.28;113692;1192;97629;-74
2021/10/22 02:05:37;;;;;;;4.50;1.10;;;;;;;11.25;49.80;98273.14;113818;1192;111153;-71
2021/10/22 02:08:05;;;;;;;3.60;1.40;;;;;;;11.23;49.84;98274.20;113920;1191;96057;-73
2021/10/22 02:10:33;;;;;;;5.00;1.40;;;;;;;11.20;49.79;98276.98;113930;1192;107539;-72
2021/10/22 02:13:03;;;;;;;5.90;1.70;;;;;;;11.17;49.67;98275.61;113939;1192;97974;-72
2021/10/22 02:15:31;;;;;;;3.30;1.20;;;;;;;11.13;49.57;98273.79;113867;1192;98080;-73
2021/10/22 02:17:59;;;;;;;3.50;1.10;;;;;;;11.11;49.51;98277.77;114757;1192;111143;-72
2021/10/22 02:20:27;;;;;;;2.90;1.30;;;;;;;11.08;49.55;98275.84;113601;1193;97576;-72
2021/10/22 02:22:55;;;;;;;3.40;1.50;;;;;;;11.07;49.45;98270.06;113808;1192;107504;-73
2021/10/22 02:25:23;;;;;;;3.20;1.00;;;;;;;11.06;49.47;98262.00;113816;1193;97613;-73
2021/10/22 02:27:52;;;;;;;2.40;1.20;;;;;;;11.06;49.39;98267.66;113945;1191;98294;-72
2021/10/22 02:30:23;;;;;;;7.60;1.30;;;;;;;11.06;49.36;98262.70;114301;1192;110229;-72
2021/10/22 02:32:53;;;;;;;5.30;1.10;;;;;;;11.07;49.31;98262.27;113958;1192;97691;-72
2021/10/22 02:35:21;;;;;;;4.20;1.00;;;;;;;11.08;48.93;98265.90;113945;1193;107646;-73
2021/10/22 02:37:49;;;;;;;5.30;1.50;;;;;;;11.10;49.01;98266.44;113973;1192;97651;-70
2021/10/22 02:40:20;;;;;;;4.50;1.10;;;;;;;11.12;48.95;98267.87;113942;1193;97679;-72
2021/10/22 02:42:48;;;;;;;2.20;0.80;;;;;;;11.13;49.00;98263.69;113931;1192;111129;-71
2021/10/22 02:45:19;;;;;;;2.10;0.50;;;;;;;11.14;48.86;98262.92;113935;1192;97549;-70
2021/10/22 02:47:46;;;;;;;1.90;0.80;;;;;;;11.14;49.00;98263.07;113926;1193;105916;-72
2021/10/22 02:50:18;;;;;;;2.90;0.80;;;;;;;11.14;48.93;98266.09;113893;1191;98334;-73
2021/10/22 02:52:46;;;;;;;4.80;1.10;;;;;;;11.13;48.89;98268.73;113664;1192;96972;-72
2021/10/22 02:55:18;;;;;;;8.30;1.20;;;;;;;11.12;48.86;98276.76;113659;1192;111067;-72
2021/10/22 02:57:46;;;;;;;4.00;1.00;;;;;;;11.10;48.78;98277.42;113742;1193;95196;-71
2021/10/22 03:00:17;;;;;;;3.90;0.90;;;;;;;11.09;48.80;98274.16;113769;1192;107505;-71
2021/10/22 03:02:46;;;;;;;3.60;0.90;;;;;;;11.08;48.86;98282.57;113900;1192;95029;-71
2021/10/22 03:05:17;;;;;;;4.30;0.90;;;;;;;11.06;48.74;98285.26;113649;1192;97588;-73
2021/10/22 03:07:45;;;;;;;3.30;0.90;;;;;;;11.03;48.77;98289.05;113826;1183;111157;-72
2021/10/22 03:10:16;;;;;;;2.70;1.10;;;;;;;11.01;48.76;98284.96;113839;1192;96286;-73
2021/10/22 03:12:43;;;;;;;4.80;0.70;;;;;;;10.98;48.80;98281.89;113615;1192;107700;-73
2021/10/22 03:15:18;;;;;;;5.40;0.80;;;;;;;10.93;48.73;98298.75;113741;1192;98243;-72
2021/10/22 03:17:46;;;;;;;2.30;0.70;;;;;;;10.90;48.70;98303.70;113920;1192;97609;-72
2021/10/22 03:20:14;;;;;;;4.90;1.10;;;;;;;10.85;48.62;98306.75;113845;1191;111241;-72
2021/10/22 03:22:42;;;;;;;2.50;0.80;;;;;;;10.80;48.67;98308.58;113980;1192;97602;-71
2021/10/22 03:25:10;;;;;;;2.80;1.10;;;;;;;10.77;48.62;98302.18;113925;1192;107549;-70
2021/10/22 03:27:38;;;;;;;3.60;1.00;;;;;;;10.71;48.51;98302.95;113914;1191;97578;-71
2021/10/22 03:30:09;;;;;;;3.80;0.90;;;;;;;10.67;48.54;98311.60;113846;1192;95117;-71
2021/10/22 03:32:40;;;;;;;6.10;1.00;;;;;;;10.64;48.55;98316.00;113960;1193;111154;-71
2021/10/22 03:35:10;;;;;;;2.90;0.90;;;;;;;10.60;48.56;98316.11;113957;1192;97563;-69
2021/10/22 03:37:41;;;;;;;2.70;1.00;;;;;;;10.59;48.60;98318.03;113966;1192;107450;-71
2021/10/22 03:40:12;;;;;;;1.40;0.90;;;;;;;10.59;48.65;98317.81;113829;1192;97624;-70
2021/10/22 03:42:40;;;;;;;2.40;1.30;;;;;;;10.58;48.60;98320.75;113941;1193;97599;-69
2021/10/22 03:45:11;;;;;;;4.70;1.30;;;;;;;10.53;48.58;98319.88;113800;1192;111136;-70
2021/10/22 03:47:39;;;;;;;4.10;1.40;;;;;;;10.48;48.54;98318.91;113636;1192;96239;-69
2021/10/22 03:50:10;;;;;;;3.20;1.00;;;;;;;10.43;48.60;98320.33;113887;1192;107654;-68
2021/10/22 03:52:37;;;;;;;5.30;1.20;;;;;;;10.39;48.60;98323.87;113806;1192;97641;-68
2021/10/22 03:55:12;;;;;;;7.80;1.50;;;;;;;10.35;48.62;98324.02;113891;1192;97571;-68
2021/10/22 03:57:43;;;;;;;5.70;1.30;;;;;;;10.32;48.52;98320.94;113914;1191;111197;-69
2021/10/22 04:00:13;;;;;;;4.60;1.30;;;;;;;10.27;48.49;98335.27;113720;1192;95112;-70
2021/10/22 04:02:44;;;;;;;7.50;1.90;;;;;;;10.25;48.60;98337.73;113702;1193;108197;-68
2021/10/22 04:05:12;;;;;;;4.10;1.20;;;;;;;10.24;48.62;98336.97;113820;1192;97547;-69
2021/10/22 04:07:44;;;;;;;3.50;1.40;;;;;;;10.23;48.65;98341.85;113641;1192;97514;-70
2021/10/22 04:10:12;;;;;;;7.10;1.80;;;;;;;10.23;48.78;98342.34;113838;1193;111141;-69
2021/10/22 04:12:39;;;;;;;4.10;1.00;;;;;;;10.23;48.83;98350.14;113878;1191;97569;-70
2021/10/22 04:15:11;;;;;;;6.70;1.40;;;;;;;10.24;48.88;98350.96;113836;1193;107066;-70
2021/10/22 04:17:38;;;;;;;3.90;1.30;;;;;;;10.25;48.82;98349.13;113903;1192;95095;-70
2021/10/22 04:20:12;;;;;;;3.20;1.50;;;;;;;10.25;48.92;98348.09;113964;1192;97543;-72
2021/10/22 04:22:40;;;;;;;6.50;1.50;;;;;;;10.25;48.86;98350.57;113943;1192;111186;-69
2021/10/22 04:25:12;;;;;;;6.70;1.30;;;;;;;10.25;48.94;98353.91;113976;1193;97647;-72
2021/10/22 04:27:39;;;;;;;5.70;1.60;;;;;;;10.25;48.90;98354.95;114002;1192;107575;-69
2021/10/22 04:30:11;;;;;;;5.60;1.60;;;;;;;10.26;48.99;98363.38;113979;1192;97721;-71
2021/10/22 04:32:38;;;;;;;5.10;1.70;;;;;;;10.28;49.04;98364.52;114002;1192;97620;-71
2021/10/22 04:35:07;;;;;;;8.40;1.80;;;;;;;10.29;49.15;98368.46;113928;1191;111157;-72
2021/10/22 04:37:46;;;;;;;6.70;1.50;;;;;;;10.31;49.40;98374.35;115017;1191;97570;-71
2021/10/22 04:40:33;;;;;;;5.30;1.30;;;;;;;10.31;49.32;98378.58;113758;1191;107516;-71
2021/10/22 04:43:04;;;;;;;7.00;1.50;;;;;;;10.33;49.38;98383.77;114346;1187;96028;-70
2021/10/22 04:45:37;;;;;;;9.10;2.20;;;;;;;10.34;49.43;98384.79;113885;1193;95878;-71
2021/10/22 04:48:08;;;;;;;5.20;1.50;;;;;;;10.33;49.41;98385.33;113795;1192;110942;-68
2021/10/22 04:50:42;;;;;;;4.30;1.60;;;;;;;10.34;49.33;98386.89;113853;1191;97554;-71
2021/10/22 04:53:10;;;;;;;3.00;1.30;;;;;;;10.34;49.44;98391.29;114004;1191;107797;-70
2021/10/22 04:55:38;;;;;;;4.80;1.70;;;;;;;10.34;49.49;98396.95;115159;1192;95647;-69
2021/10/22 04:58:10;;;;;;;5.50;1.30;;;;;;;10.33;49.40;98403.56;113729;1192;97576;-71
2021/10/22 05:01:00;;;;;;;3.90;1.80;;;;;;;10.34;49.39;98410.42;113449;1192;111176;-71
2021/10/22 05:03:29;;;;;;;6.00;1.30;;;;;;;10.35;49.57;98419.89;113566;1192;97624;-71
2021/10/22 05:05:58;;;;;;;6.50;1.60;;;;;;;10.36;49.50;98419.63;114522;1192;105859;-70
2021/10/22 05:08:26;;;;;;;8.10;2.10;;;;;;;10.36;49.61;98423.93;113501;1192;95668;-71
2021/10/22 05:10:57;;;;;;;6.50;1.90;;;;;;;10.36;49.65;98423.91;113521;1193;97676;-70
2021/10/22 05:13:25;;;;;;;6.00;1.70;;;;;;;10.36;49.66;98426.23;113514;1193;110892;-72
2021/10/22 05:15:52;;;;;;;5.00;1.40;;;;;;;10.36;49.69;98430.66;113594;1193;95080;-71
2021/10/22 05:18:21;;;;;;;6.50;1.60;;;;;;;10.38;49.72;98440.06;113572;1192;107496;-71
2021/10/22 05:20:52;;;;;;;3.50;1.80;;;;;;;10.40;49.78;98437.98;113352;1194;97645;-70
2021/10/22 05:23:20;;;;;;;8.60;2.30;;;;;;;10.42;49.84;98447.85;113661;1193;97594;-70
2021/10/22 05:25:51;;;;;;;4.80;1.80;;;;;;;10.45;49.91;98450.51;113571;1193;111167;-71
2021/10/22 05:28:19;;;;;;;3.30;1.30;;;;;;;10.46;49.89;98460.89;113646;1192;97586;-69
2021/10/22 05:30:50;;;;;;;7.80;1.90;;;;;;;10.47;49.95;98463.28;113465;1193;108596;-70
2021/10/22 05:33:21;;;;;;;7.40;2.30;;;;;;;10.47;49.93;98470.23;113655;1192;95250;-69
2021/10/22 05:35:52;;;;;;;6.00;2.20;;;;;;;10.48;50.04;98480.77;113712;1193;97627;-70
2021/10/22 05:38:20;;;;;;;6.70;2.00;;;;;;;10.48;50.02;98489.46;113666;1192;111529;-71
2021/10/22 05:40:48;;;;;;;4.60;2.40;;;;;;;10.47;50.03;98492.67;113877;1192;98173;-70
2021/10/22 05:43:17;;;;;;;6.90;2.10;;;;;;;10.49;50.10;98504.27;113870;1193;107302;-70
2021/10/22 05:45:46;;;;;;;8.80;2.20;;;;;;;10.49;50.09;98508.51;113874;1193;97559;-71
2021/10/22 05:48:17;;;;;;;7.70;1.90;;;;;;;10.48;50.10;98517.41;113791;1193;97545;-70
2021/10/22 05:50:48;;;;;;;5.90;2.40;;;;;;;10.49;50.20;98523.91;113696;1192;111484;-69
2021/10/22 05:53:16;;;;;;;10.20;2.40;;;;;;;10.49;50.22;98530.45;113554;1193;97627;-71
2021/10/22 05:55:43;;;;;;;9.40;1.90;;;;;;;10.48;50.23;98535.15;113648;1193;107546;-69
2021/10/22 05:58:11;;;;;;;6.30;2.50;;;;;;;10.47;50.19;98546.74;113677;1193;97755;-69
2021/10/22 06:00:41;;;;;;;9.10;2.80;;;;;;;10.46;50.30;98551.27;113669;1193;97691;-71
2021/10/22 06:03:13;;;;;;;8.90;2.60;;;;;;;10.43;50.38;98559.27;113645;1192;110856;-72
2021/10/22 06:05:51;;;;;;;12.20;2.00;;;;;;;10.40;50.55;98559.86;113726;1192;95106;-70
2021/10/22 06:08:24;;;;;;;10.00;2.00;;;;;;;10.35;50.67;98564.36;113685;1192;107544;-71
2021/10/22 06:10:52;;;;;;;4.30;1.70;;;;;;;10.30;50.47;98570.74;113681;1192;97664;-71
2021/10/22 06:13:20;;;;;;;7.40;2.10;;;;;;;10.28;50.55;98577.83;113381;1193;95024;-70
2021/10/22 06:15:48;;;;;;;5.70;1.90;;;;;;;10.24;50.59;98586.84;113693;1193;111235;-71
2021/10/22 06:18:19;;;;;;;9.20;2.20;;;;;;;10.20;50.91;98592.25;113452;1193;97674;-69
2021/10/22 06:20:57;;;;;;;9.80;1.80;;;;;;;10.15;50.74;98592.53;113718;1192;107545;-72
2021/10/22 06:26:18;;;;;;;7.00;1.60;;;;;;;10.10;50.74;98595.37;113688;1193;97713;-73
2021/10/22 06:28:50;;;;;;;6.60;1.90;;;;;;;10.10;50.81;98600.13;113732;1192;110726;-70
2021/10/22 06:31:23;;;;;;;6.70;1.90;;;;;;;10.12;50.90;98610.27;113667;1193;97618;-70
2021/10/22 06:33:54;;;;;;;9.40;2.00;;;;;;;10.10;50.85;98618.37;113697;1193;107472;-72
2021/10/22 06:36:26;;;;;;;12.20;2.20;;;;;;;10.10;50.86;98625.33;113645;1193;97537;-71
2021/10/22 06:38:54;;;;;;;6.40;1.40;;;;;;;10.09;50.81;98626.22;113653;1193;97560;-70
2021/10/22 06:41:26;;;;;;;6.80;1.30;;;;;;;10.09;51.00;98625.90;113618;1192;111015;-71
2021/10/22 06:43:58;;;;;;;8.60;1.60;;;;;;;10.09;51.00;98629.83;113658;1193;97700;-71
2021/10/22 06:46:29;;;;;;;7.80;1.90;;;;;;;10.08;50.96;98632.16;113630;1192;107505;-71
2021/10/22 06:48:57;;;;;;;9.00;2.20;;;;;;;10.08;51.24;98646.73;113571;1193;97827;-74
2021/10/22 06:51:25;;;;;;;7.30;2.30;;;;;;;10.06;51.09;98649.19;113523;1193;98461;-71
2021/10/22 06:53:53;;;;;;;8.00;2.10;;;;;;;10.09;51.08;98653.91;113349;1193;111192;-71
2021/10/22 06:56:21;;;;;;;13.60;2.90;;;;;;;10.13;51.14;98653.75;113497;1193;98262;-71
2021/10/22 06:58:48;;;;;;;6.90;2.10;;;;;;;10.15;51.26;98650.41;113158;1193;107488;-70
2021/10/22 07:01:16;;;;;;;10.30;2.50;;;;;;;10.14;51.40;98655.64;113544;1193;97647;-70
2021/10/22 07:03:48;;;;;;;7.90;2.60;;;;;;;10.11;51.41;98655.48;113502;1193;97559;-71
2021/10/22 07:09:02;;;;;;;11.40;2.40;;;;;;;10.15;51.35;98660.17;113549;1193;97684;-70
2021/10/22 07:11:30;;;;;;;11.30;2.30;;;;;;;10.19;51.44;98661.48;113462;1193;107523;-70
2021/10/22 07:13:59;;;;;;;13.40;2.90;;;;;;;10.20;51.45;98663.64;113410;1193;97587;-71
2021/10/22 07:16:29;;;;;;;9.80;2.40;;;;;;;10.23;51.42;98670.73;113381;1193;97688;-71
2021/10/22 07:18:57;;;;;;;10.00;2.50;;;;;;;10.24;51.59;98671.54;113572;1193;112120;-71
2021/10/22 07:21:25;;;;;;;7.30;2.60;;;;;;;10.21;51.59;98669.42;113672;1193;97519;-71
2021/10/22 07:23:53;;;;;;;12.80;2.90;;;;;;;10.20;51.53;98678.22;113571;1193;107471;-71
2021/10/22 07:26:21;;;;;;;8.00;3.00;;;;;;;10.20;51.59;98678.91;113627;1193;97718;-70
2021/10/22 07:28:49;;;;;;;8.50;2.30;;;;;;;10.19;51.74;98680.99;113630;1193;97606;-69
2021/10/22 07:31:18;;;;;;;9.40;2.40;;;;;;;10.15;51.92;98682.51;113509;1192;111154;-71
2021/10/22 07:33:47;;;;;;;7.70;2.60;;;;;;;10.13;51.72;98684.42;113622;1193;97548;-70
2021/10/22 07:36:17;;;;;;;9.80;2.70;;;;;;;10.15;51.86;98689.80;113506;1193;105981;-70
2021/10/22 07:38:44;;;;;;;7.90;2.70;;;;;;;10.17;51.91;98686.40;113521;1193;97638;-70
2021/10/22 07:41:15;;;;;;;10.40;3.20;;;;;;;10.18;51.98;98681.95;113583;1193;95147;-72
2021/10/22 07:43:44;;;;;;;8.90;2.70;;;;;;;10.18;52.03;98683.31;113567;1193;110795;-71
2021/10/22 07:46:12;;;;;;;10.20;2.60;;;;;;;10.18;51.98;98683.88;113543;1193;98051;-70
2021/10/22 07:48:42;;;;;;;7.60;2.60;;;;;;;10.19;52.05;98680.23;113722;1192;107513;-70
2021/10/22 07:51:12;;;;;;;7.90;2.20;;;;;;;10.22;52.11;98683.70;113669;1192;97663;-70
2021/10/22 07:53:41;;;;;;;11.40;2.60;;;;;;;10.27;52.02;98681.02;113742;1192;95890;-71
2021/10/22 07:56:10;;;;;;;8.60;2.90;;;;;;;10.31;52.04;98678.27;113669;1193;110907;-70
2021/10/22 07:58:40;;;;;;;10.70;2.90;;;;;;;10.34;52.07;98680.54;113702;1193;98063;-70
2021/10/22 08:01:23;;;;;;;12.20;2.40;;;;;;;10.38;52.13;98678.94;113559;1192;107650;-70
2021/10/22 08:03:51;;;;;;;10.30;2.90;;;;;;;10.44;52.14;98683.35;113532;1192;97438;-70
2021/10/22 08:06:19;;;;;;;9.70;2.30;;;;;;;10.48;52.17;98681.40;113475;1192;97656;-70
2021/10/22 08:08:47;;;;;;;10.70;2.90;;;;;;;10.54;52.22;98675.11;115228;1192;111121;-70
2021/10/22 08:11:20;;;;;;;10.70;2.50;;;;;;;10.56;52.30;98678.11;115230;1192;95505;-70
2021/10/22 08:13:49;;;;;;;4.70;2.00;;;;;;;10.52;52.24;98677.70;115261;1192;108022;-70
2021/10/22 08:16:17;;;;;;;13.10;2.70;;;;;;;10.51;52.29;98677.98;113713;1193;98727;-70
2021/10/22 08:18:47;;;;;;;10.50;2.70;;;;;;;10.53;52.34;98679.94;115175;1192;95447;-70
2021/10/22 08:21:22;;;;;;;12.30;2.70;;;;;;;10.57;52.31;98683.91;115211;1192;111317;-72
2021/10/22 08:24:10;;;;;;;7.20;2.60;;;;;;;10.62;52.37;98686.37;113768;1193;95020;-72
2021/10/22 08:26:39;;;;;;;10.90;2.70;;;;;;;10.65;52.43;98683.78;113739;1193;107489;-71
2021/10/22 08:29:29;;;;;;;9.60;2.90;;;;;;;10.73;52.50;98681.20;113164;1192;97565;-70
2021/10/22 08:31:57;;;;;;;12.00;3.60;;;;;;;10.84;52.49;98675.56;113719;1193;96726;-70
2021/10/22 08:34:27;;;;;;;10.00;3.20;;;;;;;11.07;52.58;98673.17;113426;1186;111214;-71
2021/10/22 08:36:55;;;;;;;12.20;3.40;;;;;;;11.37;52.34;98674.28;113515;1193;97651;-69
2021/10/22 08:39:22;;;;;;;10.60;2.60;;;;;;;11.68;52.63;98669.84;113571;1200;106433;-74
2021/10/22 08:41:53;;;;;;;11.10;3.00;;;;;;;11.96;52.66;98675.46;113611;1193;97656;-71
2021/10/22 08:44:27;;;;;;;10.60;2.80;;;;;;;12.30;52.81;98674.38;113705;1192;97603;-71
2021/10/22 08:46:57;;;;;;;12.10;2.80;;;;;;;12.67;52.90;98671.77;113677;1193;111168;-71
2021/10/22 08:49:25;;;;;;;9.20;2.50;;;;;;;13.01;52.61;98671.81;113536;1194;97647;-70
2021/10/22 08:51:56;;;;;;;9.70;2.50;;;;;;;13.25;52.26;98672.14;113445;1192;107553;-70
2021/10/22 08:54:26;;;;;;;10.40;2.90;;;;;;;13.50;52.18;98669.60;113647;1192;97660;-71
2021/10/22 08:57:15;;;;;;;7.20;2.20;;;;;;;13.86;52.35;98668.85;113497;1192;98320;-71
2021/10/22 08:59:43;;;;;;;9.90;2.80;;;;;;;14.21;52.31;98667.91;113590;1193;111131;-71
2021/10/22 09:02:16;;;;;;;7.70;2.30;;;;;;;14.50;52.40;98667.83;113597;1193;97599;-71
2021/10/22 09:04:56;;;;;;;7.30;2.60;;;;;;;14.78;52.51;98673.99;113551;1193;108485;-71
2021/10/22 09:07:40;;;;;;;10.50;2.20;;;;;;;15.08;52.42;98678.08;113374;1193;97587;-71
2021/10/22 09:10:11;;;;;;;5.20;2.20;;;;;;;15.61;52.32;98670.36;113739;1192;95096;-73
2021/10/22 09:12:45;;;;;;;9.20;2.60;;;;;;;16.21;51.90;98673.89;113461;1192;110704;-72
2021/10/22 09:15:17;;;;;;;6.50;2.10;;;;;;;16.72;50.51;98673.02;113213;1195;97641;-71
2021/10/22 09:17:46;;;;;;;6.00;2.30;;;;;;;17.07;51.64;98678.05;113476;1193;107584;-72
2021/10/22 09:20:16;;;;;;;8.70;2.60;;;;;;;17.33;49.55;98677.79;113424;1192;97652;-71
2021/10/22 09:22:52;;;;;;;10.00;2.30;;;;;;;17.34;50.88;98679.09;113612;1193;97565;-72
2021/10/22 09:25:24;;;;;;;11.00;2.60;;;;;;;17.26;50.47;98683.90;114191;1192;111019;-71
2021/10/22 09:28:01;;;;;;;11.20;2.90;;;;;;;17.10;50.56;98687.44;113627;1192;97589;-73
2021/10/22 09:30:31;;;;;;;12.40;3.40;;;;;;;16.82;48.45;98688.14;114038;1192;107519;-71
2021/10/22 09:33:26;;;;;;;10.60;3.30;;;;;;;16.31;47.18;98684.60;113348;1194;97658;-73
2021/10/22 09:35:56;;;;;;;12.70;3.70;;;;;;;15.90;50.06;98679.27;113594;1193;97544;-72
2021/10/22 09:38:31;;;;;;;10.10;2.50;;;;;;;15.82;50.24;98681.98;113607;1193;112103;-71
2021/10/22 09:41:04;;;;;;;10.50;2.90;;;;;;;15.86;50.32;98676.61;113624;1193;95122;-71
2021/10/22 09:43:36;;;;;;;10.00;3.30;;;;;;;15.93;50.34;98671.27;113749;1192;107676;-71
2021/10/22 09:46:16;;;;;;;10.80;3.50;;;;;;;15.93;49.90;98671.34;113595;1193;97718;-72
2021/10/22 09:48:58;;;;;;;10.00;2.50;;;;;;;15.76;49.35;98673.69;113555;1193;97648;-71
2021/10/22 09:51:33;;;;;;;13.30;4.10;;;;;;;15.56;49.14;98676.17;113636;1193;111782;-72
2021/10/22 09:54:11;;;;;;;13.30;3.60;;;;;;;15.25;49.10;98678.91;113422;1193;97623;-71
2021/10/22 09:56:51;;;;;;;11.40;3.40;;;;;;;15.15;49.50;98679.49;113365;1194;106543;-71
2021/10/22 09:59:29;;;;;;;9.50;2.90;;;;;;;15.13;49.56;98678.27;113616;1193;97554;-72
2021/10/22 10:02:01;;;;;;;10.70;3.10;;;;;;;15.11;49.36;98668.13;113625;1193;95117;-72
2021/10/22 10:04:32;;;;;;;13.80;3.20;;;;;;;15.09;49.18;98668.70;113667;1193;111336;-71
2021/10/22 10:07:06;;;;;;;12.50;3.40;;;;;;;14.99;48.62;98665.20;113534;1193;96011;-70
2021/10/22 10:09:38;;;;;;;12.10;3.80;;;;;;;14.88;49.02;98664.98;113495;1193;108373;-70
2021/10/22 10:12:06;;;;;;;10.10;3.50;;;;;;;14.92;49.22;98667.66;113690;1193;97524;-69
2021/10/22 10:14:34;;;;;;;13.30;3.60;;;;;;;15.02;49.28;98667.74;113596;1192;97686;-70
2021/10/22 10:17:03;;;;;;;11.00;2.70;;;;;;;15.15;49.12;98660.58;113492;1192;111013;-73
2021/10/22 10:19:47;;;;;;;10.10;2.30;;;;;;;15.23;48.63;98660.48;113683;1192;97640;-73
2021/10/22 10:22:19;;;;;;;7.40;2.50;;;;;;;15.33;48.01;98653.84;113606;1192;107528;-71
2021/10/22 10:24:56;;;;;;;8.50;2.00;;;;;;;15.35;48.73;98658.58;113525;1193;97669;-72
2021/10/22 10:27:27;;;;;;;5.10;2.20;;;;;;;15.50;48.27;98662.38;113525;1193;97689;-72
2021/10/22 10:30:00;;;;;;;8.00;2.10;;;;;;;15.59;48.17;98658.87;113887;1192;111394;-71
2021/10/22 10:32:31;;;;;;;8.00;2.30;;;;;;;15.66;47.72;98654.67;113313;1193;97487;-71
2021/10/22 10:35:20;;;;;;;8.80;2.40;;;;;;;15.69;47.80;98656.91;114066;1193;107574;-71
2021/10/22 10:37:55;;;;;;;11.80;3.60;;;;;;;15.65;46.70;98647.36;113958;1193;96046;-71
2021/10/22 10:40:29;;;;;;;8.90;3.10;;;;;;;15.52;47.30;98646.58;113947;1192;98250;-71
2021/10/22 10:43:18;;;;;;;7.80;2.50;;;;;;;15.50;47.59;98639.69;113789;1192;111202;-72
2021/10/22 10:45:46;;;;;;;4.80;2.20;;;;;;;15.56;47.44;98637.29;113714;1193;97578;-71
2021/10/22 10:48:19;;;;;;;10.10;3.30;;;;;;;15.61;47.16;98634.95;113586;1193;107550;-71
2021/10/22 10:51:04;;;;;;;9.10;3.20;;;;;;;15.56;47.52;98635.61;113799;1193;97620;-71
2021/10/22 10:53:39;;;;;;;8.80;2.90;;;;;;;15.60;47.38;98635.79;113941;1192;97649;-72
2021/10/22 10:56:07;;;;;;;12.20;2.30;;;;;;;15.63;46.47;98632.80;113940;1193;110311;-72
2021/10/22 10:58:43;;;;;;;10.20;2.20;;;;;;;15.53;46.96;98633.41;113846;1193;96082;-72
2021/10/22 11:01:56;;;;;;;6.90;1.90;;;;;;;15.55;46.72;98637.69;113666;1193;107644;-70
2021/10/22 11:04:56;;;;;;;3.50;1.70;;;;;;;15.54;46.57;98635.96;113579;1193;97567;-71
2021/10/22 11:07:35;;;;;;;4.30;2.30;;;;;;;15.49;46.42;98631.67;113142;1193;95010;-71
2021/10/22 11:10:03;;;;;;;6.00;2.10;;;;;;;15.43;46.26;98628.14;113502;1193;111191;-71
2021/10/22 11:13:10;;;;;;;7.90;2.20;;;;;;;15.41;46.16;98629.46;113539;1193;97499;-72
2021/10/22 11:15:37;;;;;;;7.20;1.60;;;;;;;15.44;46.09;98628.42;113605;1193;106029;-71
2021/10/22 11:18:11;;;;;;;7.40;2.00;;;;;;;15.54;45.91;98627.70;113464;1193;96681;-71
2021/10/22 11:20:53;;;;;;;8.90;1.90;;;;;;;15.60;44.90;98620.61;113604;1193;96472;-72
2021/10/22 11:23:21;;;;;;;4.20;1.60;;;;;;;15.58;45.98;98609.41;113505;1192;112331;-71
2021/10/22 11:25:57;;;;;;;4.40;1.60;;;;;;;15.62;46.05;98608.56;113520;1193;97582;-72
2021/10/22 11:28:34;;;;;;;5.20;1.90;;;;;;;15.69;46.05;98606.98;113463;1193;108099;-71
2021/10/22 11:31:02;;;;;;;6.80;2.40;;;;;;;15.71;45.80;98602.13;113481;1193;98090;-71
2021/10/22 11:33:30;;;;;;;7.90;2.00;;;;;;;15.69;45.47;98602.02;113598;1193;97663;-71
2021/10/22 11:36:00;;;;;;;6.60;2.40;;;;;;;15.68;45.16;98602.52;113559;1193;109969;-71
2021/10/22 11:38:32;;;;;;;5.60;1.90;;;;;;;15.58;45.37;98595.80;113614;1193;99758;-71
2021/10/22 11:41:17;;;;;;;8.90;2.50;;;;;;;15.47;45.52;98601.70;113682;1193;107541;-70
2021/10/22 11:44:10;;;;;;;10.40;2.10;;;;;;;15.42;45.45;98592.20;113589;1194;97722;-71